createdAt,value
2022-12-16T00:02:05.186Z,30.07
2022-12-16T00:05:09.723Z,25.87
2022-12-16T00:08:15.013Z,25.93
2022-12-16T00:11:18.652Z,30.40
2022-12-16T00:14:22.210Z,29.20
2022-12-16T00:17:25.794Z,29.17
2022-12-16T00:20:29.415Z,33.63
2022-12-16T00:23:35.929Z,28.10
2022-12-16T00:26:39.865Z,24.27
2022-12-16T00:29:43.406Z,28.17
2022-12-16T00:32:47.007Z,27.73
2022-12-16T00:35:50.591Z,26.23
2022-12-16T00:38:56.785Z,22.83
2022-12-16T00:42:00.324Z,31.03
2022-12-16T00:45:04.877Z,27.30
2022-12-16T00:48:09.213Z,26.63
2022-12-16T00:51:12.761Z,28.27
2022-12-16T00:54:17.772Z,32.90
2022-12-16T00:57:21.419Z,25.97
2022-12-16T01:00:25.350Z,27.30
2022-12-16T01:03:29.434Z,24.87
2022-12-16T01:06:33.119Z,29.10
2022-12-16T01:09:38.430Z,29.30
2022-12-16T01:12:42.002Z,28.03
2022-12-16T01:15:45.661Z,27.60
2022-12-16T01:18:49.395Z,27.33
2022-12-16T01:21:53.037Z,29.77
2022-12-16T01:24:58.643Z,27.27
2022-12-16T01:28:02.238Z,26.77
2022-12-16T01:31:06.230Z,28.83
2022-12-16T01:34:11.059Z,27.13
2022-12-16T01:37:14.918Z,27.20
2022-12-16T01:40:23.758Z,26.37
2022-12-16T01:43:31.322Z,25.57
2022-12-16T01:46:38.636Z,31.50
2022-12-16T01:49:49.004Z,28.93
2022-12-16T01:53:00.488Z,26.60
2022-12-16T01:56:05.896Z,24.07
2022-12-16T01:59:10.309Z,29.77
2022-12-16T02:02:16.087Z,25.30
2022-12-16T02:05:22.966Z,32.00
2022-12-16T02:08:26.554Z,28.53
2022-12-16T02:12:15.304Z,23.27
2022-12-16T02:15:40.775Z,28.30
2022-12-16T02:18:56.586Z,25.30
2022-12-16T02:22:17.567Z,26.13
2022-12-16T02:26:08.177Z,25.17
2022-12-16T02:30:08.677Z,29.77
2022-12-16T02:33:31.793Z,27.70
2022-12-16T02:36:57.986Z,31.20
2022-12-16T02:40:04.701Z,27.63
2022-12-16T02:43:19.167Z,28.90
2022-12-16T02:46:28.463Z,29.73
2022-12-16T02:49:50.043Z,27.73
2022-12-16T02:52:57.162Z,32.03
2022-12-16T02:56:19.568Z,27.47
2022-12-16T02:59:35.943Z,29.53
2022-12-16T03:02:50.895Z,25.20
2022-12-16T03:06:00.135Z,28.37
2022-12-16T03:09:10.233Z,27.77
2022-12-16T03:12:21.271Z,31.83
2022-12-16T03:15:30.073Z,25.73
2022-12-16T03:18:35.987Z,29.57
2022-12-16T03:21:50.442Z,30.07
2022-12-16T03:24:54.704Z,33.97
2022-12-16T03:28:08.105Z,33.20
2022-12-16T03:31:31.260Z,28.00
2022-12-16T03:34:42.207Z,25.07
2022-12-16T03:37:50.969Z,27.83
2022-12-16T03:40:57.848Z,28.93
2022-12-16T03:44:01.841Z,22.00
2022-12-16T03:47:06.608Z,26.67
2022-12-16T03:50:11.171Z,26.50
2022-12-16T03:53:16.140Z,25.60
2022-12-16T03:56:19.793Z,28.57
2022-12-16T03:59:23.706Z,27.50
2022-12-16T04:02:27.458Z,25.37
2022-12-16T04:05:31.169Z,25.80
2022-12-16T04:08:36.160Z,27.13
2022-12-16T04:11:57.175Z,29.07
2022-12-16T04:15:17.967Z,28.23
2022-12-16T04:18:38.942Z,29.30
2022-12-16T04:22:00.081Z,25.67
2022-12-16T04:25:10.289Z,28.97
2022-12-16T04:28:13.854Z,26.27
2022-12-16T04:31:17.602Z,28.00
2022-12-16T04:34:27.836Z,29.10
2022-12-16T04:38:03.466Z,28.97
2022-12-16T04:41:25.875Z,31.50
2022-12-16T04:44:47.301Z,29.90
2022-12-16T04:48:08.450Z,29.60
2022-12-16T04:51:28.721Z,30.03
2022-12-16T04:54:49.758Z,30.87
2022-12-16T04:58:14.213Z,26.23
2022-12-16T05:01:35.314Z,31.33
2022-12-16T05:04:56.505Z,30.00
2022-12-16T05:08:17.531Z,31.43
2022-12-16T05:11:38.683Z,32.17
2022-12-16T05:15:00.771Z,27.33
2022-12-16T05:18:28.090Z,28.40
2022-12-16T05:21:49.252Z,30.07
2022-12-16T05:25:10.203Z,28.67
2022-12-16T05:28:31.387Z,32.10
2022-12-16T05:31:53.478Z,28.40
2022-12-16T05:35:13.430Z,32.37
2022-12-16T05:38:34.686Z,30.83
2022-12-16T05:41:55.778Z,28.13
2022-12-16T05:45:16.857Z,30.40
2022-12-16T05:48:43.117Z,31.30
2022-12-16T05:52:07.033Z,31.60
2022-12-16T05:55:33.727Z,41.50
2022-12-16T05:58:55.598Z,32.93
2022-12-16T06:02:16.650Z,31.97
2022-12-16T06:05:38.980Z,47.17
2022-12-16T06:09:00.102Z,32.97
2022-12-16T06:12:21.216Z,28.27
2022-12-16T06:15:41.617Z,37.00
2022-12-16T06:19:02.870Z,30.17
2022-12-16T06:22:24.984Z,35.80
2022-12-16T06:25:46.150Z,32.57
2022-12-16T06:29:07.434Z,32.63
2022-12-16T06:32:28.641Z,86.50
2022-12-16T06:35:50.121Z,60.60
2022-12-16T06:39:12.950Z,105.83
2022-12-16T06:42:34.020Z,37.90
2022-12-16T06:45:55.338Z,46.53
2022-12-16T06:49:16.277Z,32.37
2022-12-16T06:52:37.104Z,36.20
2022-12-16T06:55:59.751Z,61.73
2022-12-16T06:59:20.866Z,48.67
2022-12-16T07:02:42.051Z,56.53
2022-12-16T07:06:02.121Z,76.17
2022-12-16T07:09:23.382Z,166.37
2022-12-16T07:12:45.986Z,97.67
2022-12-16T07:16:15.542Z,116.47
2022-12-16T07:19:36.497Z,51.13
2022-12-16T07:23:07.802Z,65.23
2022-12-16T07:26:33.066Z,46.23
2022-12-16T07:29:55.459Z,38.00
2022-12-16T07:33:16.417Z,28.00
2022-12-16T07:36:51.968Z,30.60
2022-12-16T07:40:13.194Z,33.67
2022-12-16T07:43:34.625Z,27.03
2022-12-16T07:46:57.323Z,24.50
2022-12-16T07:50:18.174Z,28.77
2022-12-16T07:53:40.044Z,26.90
2022-12-16T07:57:01.181Z,24.83
2022-12-16T08:00:23.701Z,25.27
2022-12-16T08:03:48.055Z,27.50
2022-12-16T08:07:09.146Z,28.77
2022-12-16T08:10:30.137Z,24.97
2022-12-16T08:13:51.095Z,23.97
2022-12-16T08:17:11.992Z,27.57
2022-12-16T08:20:34.993Z,26.80
2022-12-16T08:23:55.690Z,28.83
2022-12-16T08:27:16.781Z,25.47
2022-12-16T08:30:37.937Z,31.00
2022-12-16T08:33:59.040Z,26.73
2022-12-16T08:37:21.745Z,26.33
2022-12-16T08:40:52.336Z,31.13
2022-12-16T08:44:16.250Z,36.80
2022-12-16T08:47:37.306Z,27.50
2022-12-16T08:50:57.315Z,29.33
2022-12-16T08:54:20.076Z,33.80
2022-12-16T08:57:41.061Z,32.53
2022-12-16T09:01:07.009Z,32.27
2022-12-16T09:04:28.920Z,31.33
2022-12-16T09:07:49.884Z,29.67
2022-12-16T09:11:12.530Z,33.13
2022-12-16T09:14:33.534Z,82.67
2022-12-16T09:17:54.602Z,45.27
2022-12-16T09:21:17.326Z,29.70
2022-12-16T09:24:38.539Z,31.23
2022-12-16T09:28:00.773Z,34.07
2022-12-16T09:31:21.655Z,32.67
2022-12-16T09:34:42.710Z,31.23
2022-12-16T09:38:05.965Z,41.77
2022-12-16T09:41:52.413Z,34.60
2022-12-16T09:45:32.808Z,34.17
2022-12-16T09:49:03.919Z,29.30
2022-12-16T09:52:32.736Z,28.23
2022-12-16T09:55:59.252Z,32.77
2022-12-16T09:59:28.291Z,42.63
2022-12-16T10:02:51.552Z,34.63
2022-12-16T10:06:26.036Z,39.83
2022-12-16T10:09:56.510Z,33.10
2022-12-16T10:13:31.224Z,32.70
2022-12-16T10:17:03.790Z,31.00
2022-12-16T10:20:41.760Z,32.53
2022-12-16T10:24:15.714Z,31.73
2022-12-16T10:27:48.521Z,34.83
2022-12-16T10:31:09.878Z,30.93
2022-12-16T10:34:37.198Z,30.57
2022-12-16T10:38:02.231Z,32.70
2022-12-16T10:41:25.363Z,33.03
2022-12-16T10:44:56.606Z,32.40
2022-12-16T10:48:19.236Z,30.40
2022-12-16T10:51:42.426Z,32.73
2022-12-16T10:55:17.520Z,33.17
2022-12-16T10:58:53.779Z,30.70
2022-12-16T11:02:18.979Z,35.50
2022-12-16T11:05:50.455Z,33.97
2022-12-16T11:09:20.268Z,34.00
2022-12-16T11:12:47.119Z,32.50
2022-12-16T11:16:31.815Z,32.67
2022-12-16T11:19:52.720Z,32.20
2022-12-16T11:23:37.912Z,34.13
2022-12-16T11:27:12.141Z,34.13
2022-12-16T11:30:40.618Z,34.83
2022-12-16T11:34:04.284Z,35.20
2022-12-16T11:37:27.566Z,36.67
2022-12-16T11:40:50.496Z,37.20
2022-12-16T11:44:14.764Z,32.00
2022-12-16T11:47:52.575Z,34.73
2022-12-16T11:51:17.028Z,28.27
2022-12-16T11:54:43.726Z,32.67
2022-12-16T11:58:16.628Z,33.70
2022-12-16T12:01:45.672Z,34.83
2022-12-16T12:05:09.752Z,35.33
2022-12-16T12:08:41.598Z,38.87
2022-12-16T12:12:23.883Z,31.70
2022-12-16T12:15:56.440Z,35.07
2022-12-16T12:19:27.371Z,34.43
2022-12-16T12:22:55.914Z,34.27
2022-12-16T12:26:30.534Z,33.40
2022-12-16T12:30:16.069Z,31.37
2022-12-16T12:33:53.276Z,31.80
2022-12-16T12:37:27.598Z,32.63
2022-12-16T12:41:05.074Z,31.70
2022-12-16T12:44:48.923Z,31.00
2022-12-16T12:48:37.141Z,31.83
2022-12-16T12:52:11.129Z,30.60
2022-12-16T12:55:42.428Z,34.30
2022-12-16T12:59:08.656Z,31.17
2022-12-16T13:02:39.617Z,30.73
2022-12-16T13:06:01.609Z,34.30
2022-12-16T13:09:40.798Z,30.30
2022-12-16T13:13:01.998Z,32.33
2022-12-16T13:16:43.495Z,31.23
2022-12-16T13:20:22.300Z,29.87
2022-12-16T13:23:51.525Z,35.03
2022-12-16T13:27:29.411Z,33.87
2022-12-16T13:30:52.619Z,31.73
2022-12-16T13:34:23.988Z,31.00
2022-12-16T13:37:46.857Z,28.73
2022-12-16T13:41:12.923Z,27.90
2022-12-16T13:45:18.177Z,32.50
2022-12-16T13:48:57.976Z,28.17
2022-12-16T13:52:33.415Z,31.67
2022-12-16T13:56:03.271Z,31.87
2022-12-16T13:59:33.614Z,29.80
2022-12-16T14:03:00.923Z,34.97
2022-12-16T14:06:31.114Z,43.13
2022-12-16T14:10:01.010Z,29.63
2022-12-16T14:13:28.815Z,32.93
2022-12-16T14:17:06.119Z,29.43
2022-12-16T14:20:39.869Z,31.93
2022-12-16T14:24:08.196Z,32.33
2022-12-16T14:27:38.958Z,32.93
2022-12-16T14:31:00.900Z,31.67
2022-12-16T14:34:30.901Z,27.83
2022-12-16T14:37:56.210Z,32.00
2022-12-16T14:41:17.307Z,33.77
2022-12-16T14:44:45.504Z,67.13
2022-12-16T14:48:06.533Z,42.90
2022-12-16T14:51:46.708Z,36.13
2022-12-16T14:55:07.758Z,28.20
2022-12-16T14:58:32.064Z,34.00
2022-12-16T15:02:00.410Z,30.43
2022-12-16T15:05:22.145Z,30.73
2022-12-16T15:08:45.382Z,29.20
2022-12-16T15:12:08.390Z,30.83
2022-12-16T15:15:41.669Z,32.87
2022-12-16T15:19:13.611Z,34.23
2022-12-16T15:22:35.957Z,30.47
2022-12-16T15:25:53.467Z,31.23
2022-12-16T15:29:14.576Z,32.13
2022-12-16T15:32:50.465Z,38.37
2022-12-16T15:36:21.581Z,34.57
2022-12-16T15:39:52.646Z,33.57
2022-12-16T15:43:13.995Z,36.83
2022-12-16T15:46:38.923Z,32.93
2022-12-16T15:50:04.739Z,31.20
2022-12-16T15:53:49.290Z,29.50
2022-12-16T15:57:21.843Z,28.97
2022-12-16T16:00:46.480Z,30.83
2022-12-16T16:04:09.893Z,32.70
2022-12-16T16:07:37.444Z,31.07
2022-12-16T16:11:01.850Z,33.80
2022-12-16T16:14:22.617Z,31.43
2022-12-16T16:17:43.581Z,36.73
2022-12-16T16:21:04.801Z,40.77
2022-12-16T16:24:26.437Z,34.20
2022-12-16T16:27:49.146Z,41.50
2022-12-16T16:31:10.372Z,41.83
2022-12-16T16:34:31.916Z,36.63
2022-12-16T16:37:52.777Z,40.97
2022-12-16T16:41:14.289Z,38.90
2022-12-16T16:44:36.306Z,42.80
2022-12-16T16:47:57.467Z,48.77
2022-12-16T16:51:20.677Z,48.87
2022-12-16T16:54:41.496Z,61.93
2022-12-16T16:58:03.145Z,49.50
2022-12-16T17:01:30.658Z,64.80
2022-12-16T17:04:51.709Z,75.70
2022-12-16T17:08:12.851Z,73.37
2022-12-16T17:11:37.977Z,53.57
2022-12-16T17:14:59.033Z,44.63
2022-12-16T17:18:22.584Z,53.63
2022-12-16T17:21:43.925Z,51.27
2022-12-16T17:25:04.997Z,80.63
2022-12-16T17:28:26.760Z,81.50
2022-12-16T17:31:48.276Z,70.10
2022-12-16T17:35:11.255Z,52.57
2022-12-16T17:38:32.827Z,44.67
2022-12-16T17:41:50.515Z,52.30
2022-12-16T17:45:11.461Z,88.27
2022-12-16T17:48:32.513Z,89.67
2022-12-16T17:51:54.892Z,69.90
2022-12-16T17:55:16.275Z,68.17
2022-12-16T17:58:37.318Z,51.43
2022-12-16T18:01:58.596Z,44.73
2022-12-16T18:05:20.009Z,46.83
2022-12-16T18:08:42.601Z,55.83
2022-12-16T18:12:03.595Z,56.17
2022-12-16T18:15:25.344Z,52.13
2022-12-16T18:18:46.522Z,61.47
2022-12-16T18:22:07.432Z,60.80
2022-12-16T18:25:39.231Z,56.97
2022-12-16T18:29:00.042Z,54.27
2022-12-16T18:32:21.106Z,132.83
2022-12-16T18:35:42.064Z,60.70
2022-12-16T18:39:03.100Z,59.80
2022-12-16T18:42:25.793Z,67.83
2022-12-16T18:45:47.133Z,62.87
2022-12-16T18:49:08.069Z,101.37
2022-12-16T18:52:29.826Z,193.83
2022-12-16T18:55:50.929Z,77.10
2022-12-16T18:59:13.668Z,61.03
2022-12-16T19:02:34.625Z,76.30
2022-12-16T19:05:55.422Z,69.27
2022-12-16T19:09:24.926Z,111.37
2022-12-16T19:12:45.933Z,100.80
2022-12-16T19:16:14.716Z,56.30
2022-12-16T19:19:35.874Z,65.97
2022-12-16T19:22:56.828Z,58.13
2022-12-16T19:26:19.158Z,56.37
2022-12-16T19:29:51.720Z,56.30
2022-12-16T19:33:14.561Z,45.77
2022-12-16T19:36:35.579Z,51.13
2022-12-16T19:39:56.858Z,51.20
2022-12-16T19:43:18.059Z,43.27
2022-12-16T19:46:39.342Z,43.20
2022-12-16T19:50:02.003Z,63.33
2022-12-16T19:53:23.159Z,45.63
2022-12-16T19:56:43.638Z,114.50
2022-12-16T20:00:04.577Z,56.40
2022-12-16T20:03:27.246Z,113.67
2022-12-16T20:06:56.038Z,51.67
2022-12-16T20:10:17.620Z,55.53
2022-12-16T20:13:39.046Z,51.63
2022-12-16T20:17:01.192Z,87.60
2022-12-16T20:20:22.819Z,56.20
2022-12-16T20:23:44.303Z,43.67
2022-12-16T20:27:05.409Z,44.13
2022-12-16T20:30:28.674Z,48.03
2022-12-16T20:33:49.973Z,84.70
2022-12-16T20:37:10.959Z,69.57
2022-12-16T20:40:33.844Z,51.63
2022-12-16T20:43:54.948Z,50.00
2022-12-16T20:47:17.752Z,57.27
2022-12-16T20:50:38.898Z,51.80
2022-12-16T20:54:00.967Z,51.63
2022-12-16T20:57:23.311Z,41.37
2022-12-16T21:00:44.348Z,47.27
2022-12-16T21:04:05.467Z,48.20
2022-12-16T21:07:26.875Z,53.20
2022-12-16T21:10:48.460Z,51.83
2022-12-16T21:14:13.088Z,48.73
2022-12-16T21:17:34.161Z,50.47
2022-12-16T21:20:56.150Z,49.33
2022-12-16T21:24:16.977Z,46.20
2022-12-16T21:27:37.950Z,49.60
2022-12-16T21:31:00.509Z,53.30
2022-12-16T21:34:21.806Z,45.07
2022-12-16T21:37:42.934Z,50.13
2022-12-16T21:41:10.170Z,49.00
2022-12-16T21:44:31.307Z,52.80
2022-12-16T21:47:53.601Z,51.90
2022-12-16T21:51:16.802Z,48.97
2022-12-16T21:54:40.327Z,49.13
2022-12-16T21:58:01.848Z,48.03
2022-12-16T22:01:23.618Z,50.43
2022-12-16T22:04:45.910Z,49.67
2022-12-16T22:08:07.248Z,45.20
2022-12-16T22:11:28.893Z,47.87
2022-12-16T22:14:49.881Z,49.00
2022-12-16T22:18:10.762Z,42.83
2022-12-16T22:21:32.921Z,50.23
2022-12-16T22:24:53.983Z,53.97
2022-12-16T22:28:17.572Z,52.67
2022-12-16T22:31:38.682Z,46.00
2022-12-16T22:34:59.880Z,46.53
2022-12-16T22:38:22.533Z,41.13
2022-12-16T22:41:43.649Z,43.97
2022-12-16T22:45:04.940Z,44.73
2022-12-16T22:48:26.223Z,50.87
2022-12-16T22:52:01.660Z,51.93
2022-12-16T22:55:24.051Z,50.70
2022-12-16T22:58:45.162Z,41.83
2022-12-16T23:02:02.820Z,40.07
2022-12-16T23:05:27.837Z,45.53
2022-12-16T23:08:49.682Z,42.73
2022-12-16T23:12:12.629Z,45.20
2022-12-16T23:15:34.421Z,43.30
2022-12-16T23:22:36.158Z,47.00
2022-12-16T23:25:57.544Z,43.90
2022-12-16T23:29:19.834Z,42.97
2022-12-16T23:32:41.127Z,42.63
2022-12-16T23:36:02.793Z,41.37
2022-12-16T23:39:23.781Z,41.10
2022-12-16T23:42:44.773Z,41.23
2022-12-16T23:46:07.165Z,40.23
2022-12-16T23:49:30.535Z,38.30
2022-12-16T23:52:51.454Z,38.67
2022-12-16T23:56:14.282Z,42.17
2022-12-16T23:59:35.493Z,43.67
